Terminal Aerodrome Forecast
Issued by NWS

Home | Current Version | Previous Version | Text Only | Print | Product List | Glossary On
Versions: 1 2 3 4 5 6 7 8 9 10 11 12 13 14 15 16 17 18 19 20 21 22 23 24 25 26 27
000
FTUS46 KSEW 161128
TAFBFI
TAF
KBFI 161128Z 1612/1712 15008KT P6SM -RA OVC050
      TEMPO 1612/1615 5SM RA
     FM170000 15008KT 5SM -RA OVC035
     FM170300 18010KT P6SM -SHRA BKN035 BKN050=

USA.gov is the U.S. government's official web portal to all federal, state and local government web resources and services.